Terminal Aerodrome Forecast
Issued by NWS

Home | Current Version | Previous Version | Text Only | Print | Product List | Glossary On
Versions: 1 2 3 4 5 6 7 8 9 10 11 12 13 14 15 16 17 18 19 20 21 22 23 24 25 26 27 28
166
FTUS44 KFWD 240534
TAFDAL
TAF
KDAL 240534Z 2406/2506 16012KT P6SM BKN045 OVC070
     FM240900 15011KT P6SM OVC015
     FM241700 18014G24KT P6SM BKN025
     FM242100 17014G24KT P6SM BKN050=

USA.gov is the U.S. government's official web portal to all federal, state and local government web resources and services.